Pagrindinis puslapis
METAR-TAF:

METAR-TAF

Oro uostai :

Chijas, Graikija

platuma: 38-20N, ilguma: 026-08E, Aukštis: 5 m

Dabartinis oras

Ataskaita buvo paskelbta 1 valandą ir 3 minutes, ne 07:50 UTC
Vėjas 12 kt iš Šiaurės
Temperatūra 17°C
Drėgmė 63%
Slėgis 1019 hPa
Matomumas 10 km arba daugiau
nėra debesų žemiau 1500 m ir nėra kamuolinių lietaus debesų

METAR: LGHI 270750Z 01012KT CAVOK 17/10 Q1019

Laikas: 11:53 (08:53 UTC)

Prognozė

Ataskaita buvo paskelbta 53 minutes, ne 08:00 UTC
Prognozė galioja nuo 27 metu 09 UTC su 27 metu 18 UTC
Vėjas 15 kt iš Šiaurės
Matomumas 10 km arba daugiau
Mažai debesys ne aukštis 1800 ft

TAF: LGHI 270800Z 2709/2718 35015KT 9999 FEW018

Orai ataskaitas ir orų prognozės (METAR, TAF).

turimą stotys yra geltonos ir raudonos taškus žemėlapyje.

Perkelti pele per norėdami pamatyti stoties vardą.

Tada spustelėkite, norėdami matyti oro stebėjimo ir prognozės.

Norėdami pakeisti žemėlapį: spustelėkite ant žalios mygtukų su juodo kryžiaus žemyn,; žalią mygtuką su brūkšneliu, jei norite nutolinti; arba žalių rodyklių gretimoms žemėlapius.


METAR-TAF: